Time;durP1;ratioP1;P1;durP2;ratioP2;P2;SDS_P1;SDS_P2;PMS_P1;PMS_P2;Temp;Humidity;BMP_temperature;BMP_pressure;BME280_temperature;BME280_humidity;BME280_pressure;Samples;Min_cycle;Max_cycle;Signal;HPM_P1;HPM_P2
2022/05/05 00:01:52;;;;;;;13.32;7.97;;;;;;;11.22;65.77;99702.91;4949623;28;20046;-94
2022/05/05 00:04:49;;;;;;;11.75;7.22;;;;;;;11.38;65.49;99722.66;4949327;28;20070;-91
2022/05/05 00:07:15;;;;;;;10.30;6.70;;;;;;;11.39;65.19;99716.19;4967254;28;20480;-94
2022/05/05 00:09:42;;;;;;;11.38;6.95;;;;;;;11.41;65.35;99708.63;4950960;28;20027;-94
2022/05/05 00:14:52;;;;;;;9.27;7.25;;;;;;;11.33;65.63;99720.78;4986460;28;20053;-94
2022/05/05 00:17:19;;;;;;;8.93;6.20;;;;;;;11.20;66.18;99715.84;4984079;28;20026;-93
2022/05/05 00:19:45;;;;;;;11.30;6.47;;;;;;;11.04;66.28;99703.38;4984688;28;20496;-93
2022/05/05 00:22:12;;;;;;;9.65;6.25;;;;;;;11.05;66.75;99713.91;4982938;28;20061;-94
2022/05/05 00:24:38;;;;;;;7.70;5.97;;;;;;;10.83;66.91;99707.88;4966946;28;20038;-94
2022/05/05 00:27:05;;;;;;;15.90;6.85;;;;;;;10.83;67.07;99707.88;4981521;28;20061;-94
2022/05/05 00:29:31;;;;;;;10.35;6.78;;;;;;;10.90;67.04;99713.84;4952366;28;20022;-93
2022/05/05 00:31:56;;;;;;;8.05;6.30;;;;;;;10.83;67.15;99711.41;4951602;28;20039;-91
2022/05/05 00:34:22;;;;;;;9.20;6.18;;;;;;;10.80;67.23;99724.56;4966831;28;20034;-93
2022/05/05 00:36:49;;;;;;;12.10;6.25;;;;;;;10.64;67.65;99718.28;4967262;28;20022;-94
2022/05/05 00:39:14;;;;;;;11.98;6.75;;;;;;;10.57;67.98;99726.59;4968242;28;20029;-94
2022/05/05 00:41:45;;;;;;;11.40;6.72;;;;;;;10.58;68.52;99732.78;4951417;28;20498;-92
2022/05/05 00:44:10;;;;;;;10.07;6.70;;;;;;;10.39;68.57;99716.22;4966333;28;20040;-93
2022/05/05 00:46:36;;;;;;;12.80;6.15;;;;;;;10.38;68.61;99703.88;4951406;28;20043;-92
2022/05/05 00:49:02;;;;;;;13.45;6.60;;;;;;;10.61;68.37;99724.19;4950669;28;20109;-93
2022/05/05 00:51:29;;;;;;;8.93;5.90;;;;;;;10.56;68.23;99716.88;4983336;28;20022;-92
2022/05/05 00:53:56;;;;;;;7.93;6.20;;;;;;;10.42;68.17;99713.84;4982992;28;20507;-94
2022/05/05 00:56:23;;;;;;;9.65;6.03;;;;;;;10.35;68.91;99723.19;4951206;28;20018;-94
2022/05/05 00:58:50;;;;;;;9.65;6.35;;;;;;;10.26;68.87;99717.47;4967198;28;20034;-93
2022/05/05 01:01:21;;;;;;;10.52;6.60;;;;;;;10.32;68.88;99730.72;4966891;28;20041;-93
2022/05/05 01:03:47;;;;;;;11.02;6.57;;;;;;;10.20;69.38;99722.00;4999812;28;20034;-93
2022/05/05 01:06:14;;;;;;;7.80;6.85;;;;;;;10.20;69.66;99724.69;4966833;28;20473;-93
2022/05/05 01:08:41;;;;;;;11.05;7.03;;;;;;;10.18;69.56;99732.19;4982567;28;20046;-94
2022/05/05 01:11:07;;;;;;;12.50;6.53;;;;;;;10.27;69.04;99727.97;4953823;28;20180;-93
2022/05/05 01:13:38;;;;;;;6.78;5.93;;;;;;;10.35;68.78;99739.34;4963744;28;20034;-95
2022/05/05 01:16:04;;;;;;;10.85;6.80;;;;;;;10.10;69.30;99725.41;4932150;28;20015;-94
2022/05/05 01:18:31;;;;;;;10.95;6.20;;;;;;;10.08;69.42;99734.81;4948560;28;20118;-94
2022/05/05 01:20:58;;;;;;;10.00;6.10;;;;;;;10.07;69.07;99734.00;4979158;28;20058;-93
2022/05/05 01:23:24;;;;;;;15.73;6.18;;;;;;;10.13;69.32;99745.63;4947433;28;20038;-94
2022/05/05 01:28:44;;;;;;;9.40;6.75;;;;;;;10.37;68.50;99742.59;4966826;28;20131;-91
2022/05/05 01:31:13;;;;;;;9.65;6.65;;;;;;;10.46;67.74;99738.38;4965052;28;20019;-93
2022/05/05 01:33:40;;;;;;;8.88;6.90;;;;;;;10.44;67.60;99725.16;4933012;28;20050;-94
2022/05/05 01:36:08;;;;;;;8.95;5.88;;;;;;;10.34;68.45;99735.06;4947484;28;20023;-94
2022/05/05 01:38:36;;;;;;;11.20;5.90;;;;;;;10.11;68.57;99729.72;4947152;28;20406;-94
2022/05/05 01:41:07;;;;;;;8.65;5.68;;;;;;;10.05;68.53;99736.13;4948777;28;20456;-92
2022/05/05 01:43:34;;;;;;;9.65;6.53;;;;;;;10.05;69.47;99743.41;4963854;28;20458;-94
2022/05/05 01:46:00;;;;;;;12.88;6.85;;;;;;;9.94;69.54;99734.44;4963305;28;20033;-94
2022/05/05 01:48:25;;;;;;;8.15;6.65;;;;;;;9.74;70.00;99729.66;4932634;28;20034;-95
2022/05/05 01:50:51;;;;;;;8.50;5.88;;;;;;;9.86;70.07;99742.97;4947743;28;20401;-94
2022/05/05 01:53:17;;;;;;;11.25;6.00;;;;;;;9.90;69.38;99744.88;4947206;28;20197;-92
2022/05/05 01:55:43;;;;;;;6.53;5.65;;;;;;;9.82;69.55;99737.28;4947539;28;20390;-94
2022/05/05 01:58:09;;;;;;;12.25;5.80;;;;;;;9.89;69.06;99742.44;4963117;28;20480;-94
2022/05/05 02:00:35;;;;;;;10.15;6.13;;;;;;;9.87;69.65;99750.75;4947294;28;20034;-94
2022/05/05 02:03:01;;;;;;;8.18;6.30;;;;;;;9.97;69.27;99749.25;4932151;28;20014;-93
2022/05/05 02:05:29;;;;;;;10.02;5.93;;;;;;;10.02;68.71;99760.88;4963786;28;20030;-93
2022/05/05 02:07:54;;;;;;;8.80;5.95;;;;;;;9.90;68.98;99760.22;4947386;28;20540;-93
2022/05/05 02:10:22;;;;;;;13.35;6.60;;;;;;;9.89;69.01;99764.75;4956617;28;20054;-94
2022/05/05 02:12:51;;;;;;;12.20;6.20;;;;;;;9.65;69.69;99742.75;4981545;28;20396;-91
2022/05/05 02:15:17;;;;;;;11.38;6.07;;;;;;;9.64;69.56;99746.50;4998765;28;20022;-94
2022/05/05 02:17:44;;;;;;;8.02;6.10;;;;;;;9.64;69.99;99749.19;4981039;28;20117;-93
2022/05/05 02:20:12;;;;;;;8.27;5.75;;;;;;;9.59;70.04;99746.44;4982608;28;20038;-93
2022/05/05 02:22:39;;;;;;;8.63;5.50;;;;;;;9.64;70.10;99751.06;4982617;28;20035;-93
2022/05/05 02:25:06;;;;;;;9.13;6.10;;;;;;;9.54;69.90;99753.63;4981876;28;20106;-94
2022/05/05 02:27:51;;;;;;;14.30;6.57;;;;;;;9.57;69.84;99756.66;4998117;28;20041;-93
2022/05/05 02:30:18;;;;;;;10.45;6.03;;;;;;;9.47;69.70;99746.59;4982241;28;20022;-93
2022/05/05 02:32:46;;;;;;;7.88;6.00;;;;;;;9.53;70.09;99763.59;4998036;28;20046;-93
2022/05/05 02:35:13;;;;;;;10.77;6.15;;;;;;;9.39;70.36;99749.72;4981932;28;20112;-94
2022/05/05 02:40:23;;;;;;;11.73;6.13;;;;;;;9.47;70.54;99776.16;4984192;28;20049;-94
2022/05/05 02:42:50;;;;;;;10.77;5.95;;;;;;;9.41;70.39;99771.78;4996992;28;20046;-94
2022/05/05 02:45:17;;;;;;;14.25;7.65;;;;;;;9.38;70.69;99784.88;4996527;28;20424;-94
2022/05/05 02:47:46;;;;;;;12.13;7.13;;;;;;;9.32;70.35;99767.91;4997444;28;20038;-95
2022/05/05 02:50:13;;;;;;;8.20;6.68;;;;;;;9.51;69.93;99771.09;4981542;28;20408;-94
2022/05/05 02:52:39;;;;;;;13.50;7.15;;;;;;;9.54;69.74;99775.16;4980661;28;20092;-94
2022/05/05 02:55:08;;;;;;;10.45;7.18;;;;;;;9.40;70.33;99778.22;4980238;28;20485;-93
2022/05/05 02:57:36;;;;;;;11.73;7.57;;;;;;;9.37;70.52;99776.03;4996906;28;20037;-94
2022/05/05 03:00:04;;;;;;;11.40;8.02;;;;;;;9.26;70.61;99783.16;4998200;28;20026;-93
2022/05/05 03:02:31;;;;;;;9.38;7.13;;;;;;;9.29;70.53;99797.97;4996105;28;20467;-91
2022/05/05 03:04:58;;;;;;;8.80;6.85;;;;;;;9.11;70.48;99788.34;4994453;28;20483;-93
2022/05/05 03:07:24;;;;;;;11.10;7.75;;;;;;;9.15;70.74;99796.69;4997624;28;20065;-93
2022/05/05 03:09:51;;;;;;;8.35;7.03;;;;;;;9.05;71.10;99792.81;4997063;28;20420;-93
2022/05/05 03:12:17;;;;;;;11.00;7.28;;;;;;;9.10;70.95;99794.75;4948478;28;20109;-94
2022/05/05 03:14:44;;;;;;;14.43;8.85;;;;;;;9.17;70.60;99799.94;4964215;28;20025;-94
2022/05/05 03:17:11;;;;;;;9.65;6.63;;;;;;;9.13;70.62;99801.50;4965199;28;20123;-92
2022/05/05 03:19:37;;;;;;;10.85;6.45;;;;;;;9.27;70.83;99806.25;4964992;28;20037;-93
2022/05/05 03:22:04;;;;;;;12.60;6.40;;;;;;;9.40;69.81;99812.34;4964732;28;20030;-94
2022/05/05 03:24:29;;;;;;;13.23;6.43;;;;;;;9.35;69.36;99796.16;4964823;28;20224;-94
2022/05/05 03:26:56;;;;;;;16.92;6.60;;;;;;;9.41;69.57;99809.41;4948457;28;20052;-93
2022/05/05 03:29:22;;;;;;;11.50;7.00;;;;;;;9.38;69.50;99795.66;4947505;28;20077;-94
2022/05/05 03:31:47;;;;;;;10.45;6.38;;;;;;;9.60;69.12;99823.34;4947451;28;20030;-94
2022/05/05 03:34:13;;;;;;;9.02;5.93;;;;;;;9.53;69.36;99813.84;4948354;28;20104;-95
2022/05/05 03:36:38;;;;;;;7.43;5.72;;;;;;;9.36;69.96;99814.72;4947613;28;20026;-94
2022/05/05 03:39:04;;;;;;;10.63;6.07;;;;;;;9.32;70.07;99829.72;4964451;28;20033;-94
2022/05/05 03:41:29;;;;;;;10.52;6.35;;;;;;;9.30;70.09;99819.22;4943716;28;20026;-95
2022/05/05 03:43:55;;;;;;;9.98;6.30;;;;;;;9.23;70.16;99833.88;4928872;28;20034;-95
2022/05/05 03:46:20;;;;;;;11.90;6.35;;;;;;;9.30;70.46;99835.34;4940984;28;20034;-88
2022/05/05 03:48:46;;;;;;;12.93;6.40;;;;;;;9.34;70.40;99846.41;4960974;28;20061;-89
2022/05/05 03:51:11;;;;;;;14.38;7.60;;;;;;;9.19;70.46;99824.69;4961277;28;20077;-90
2022/05/05 03:53:37;;;;;;;13.35;7.45;;;;;;;9.25;70.41;99834.44;4944541;28;20029;-89
2022/05/05 03:56:04;;;;;;;18.23;7.82;;;;;;;9.13;70.43;99820.31;4961618;28;20025;-90
2022/05/05 03:58:29;;;;;;;10.50;7.75;;;;;;;9.13;70.51;99831.06;4944839;28;20061;-88
2022/05/05 04:00:55;;;;;;;14.15;7.63;;;;;;;9.06;70.99;99841.97;4961242;28;20030;-89
2022/05/05 04:03:32;;;;;;;12.77;7.00;;;;;;;9.12;70.64;99835.63;4977074;28;20022;-89
2022/05/05 04:06:05;;;;;;;12.98;7.75;;;;;;;8.84;71.84;99840.06;4948714;28;20030;-88
2022/05/05 04:08:31;;;;;;;13.68;7.30;;;;;;;8.90;71.78;99841.78;4961616;28;20096;-89
2022/05/05 04:10:57;;;;;;;12.88;7.57;;;;;;;8.90;71.32;99849.81;4920302;29;20501;-89
2022/05/05 04:13:22;;;;;;;16.45;7.57;;;;;;;8.93;70.83;99845.81;4930556;28;20067;-88
2022/05/05 04:15:48;;;;;;;15.85;7.85;;;;;;;8.88;71.76;99854.63;4937592;29;20026;-88
2022/05/05 04:18:14;;;;;;;16.02;7.32;;;;;;;8.93;71.67;99864.63;4922236;29;20031;-89
2022/05/05 04:20:40;;;;;;;13.27;8.25;;;;;;;8.92;72.22;99865.66;4938648;29;20442;-89
2022/05/05 04:23:06;;;;;;;16.90;8.85;;;;;;;8.90;71.88;99860.56;4940791;29;20031;-91
2022/05/05 04:25:32;;;;;;;20.98;8.85;;;;;;;8.97;72.22;99862.28;4923836;29;20031;-90
2022/05/05 04:27:57;;;;;;;14.80;9.23;;;;;;;9.08;71.75;99859.47;4941545;29;20074;-94
2022/05/05 04:30:25;;;;;;;13.77;8.73;;;;;;;9.15;72.00;99861.16;4928030;29;20046;-96
2022/05/05 04:32:51;;;;;;;14.50;9.40;;;;;;;9.20;71.22;99859.38;4927777;29;20089;-88
2022/05/05 04:35:25;;;;;;;12.73;8.90;;;;;;;9.25;71.28;99864.81;4944770;28;20027;-91
2022/05/05 04:37:58;;;;;;;17.33;8.95;;;;;;;9.33;70.54;99857.41;4933003;28;20030;-95
2022/05/05 04:40:24;;;;;;;15.25;9.55;;;;;;;9.50;70.64;99887.72;4945828;28;20051;-96
2022/05/05 04:42:50;;;;;;;28.42;12.43;;;;;;;9.45;70.56;99880.41;4948719;28;20026;-95
2022/05/05 04:45:15;;;;;;;22.42;11.48;;;;;;;9.38;70.79;99863.66;4933778;28;20027;-89
2022/05/05 04:47:41;;;;;;;29.45;9.20;;;;;;;9.41;70.46;99856.97;4930859;28;20034;-89
2022/05/05 04:50:07;;;;;;;21.52;10.55;;;;;;;9.46;70.60;99854.34;4946603;29;20031;-95
2022/05/05 04:52:33;;;;;;;29.83;11.10;;;;;;;9.74;69.91;99868.69;4946491;29;20031;-95
2022/05/05 04:54:59;;;;;;;21.52;9.35;;;;;;;9.89;69.95;99879.59;4947240;29;20023;-95
2022/05/05 04:57:26;;;;;;;16.35;9.07;;;;;;;9.96;69.27;99861.41;4930779;29;20054;-95
2022/05/05 04:59:51;;;;;;;22.67;11.98;;;;;;;10.10;68.75;99853.75;4944970;29;20142;-90
2022/05/05 05:02:18;;;;;;;24.88;16.27;;;;;;;10.25;68.94;99877.31;4945232;29;20062;-90
2022/05/05 05:04:52;;;;;;;14.65;11.75;;;;;;;10.34;68.02;99873.13;4946246;29;20023;-96
2022/05/05 05:07:18;;;;;;;15.75;10.13;;;;;;;10.38;67.60;99868.88;4948210;29;20028;-95
2022/05/05 05:09:44;;;;;;;16.05;9.30;;;;;;;10.46;66.77;99867.59;4949306;28;20027;-94
2022/05/05 05:12:10;;;;;;;27.90;12.77;;;;;;;10.70;67.33;99887.72;4934333;28;20031;-91
2022/05/05 05:14:35;;;;;;;17.80;11.32;;;;;;;10.60;66.84;99865.28;4955185;28;20030;-88
2022/05/05 05:17:01;;;;;;;16.17;10.65;;;;;;;10.76;67.44;99891.28;4964882;28;20478;-88
2022/05/05 05:19:32;;;;;;;14.95;9.55;;;;;;;10.82;67.06;99873.28;4968238;28;20031;-92
2022/05/05 05:21:58;;;;;;;16.08;10.25;;;;;;;10.92;66.69;99879.56;4977211;28;20030;-85
2022/05/05 05:24:23;;;;;;;14.07;10.23;;;;;;;11.01;66.34;99871.00;4962311;28;20033;-87
2022/05/05 05:26:49;;;;;;;19.70;10.55;;;;;;;11.25;65.95;99887.59;4982088;28;20050;-88
2022/05/05 05:29:14;;;;;;;32.10;12.27;;;;;;;11.42;65.34;99885.53;4972408;28;20047;-92
2022/05/05 05:31:40;;;;;;;16.70;11.38;;;;;;;11.57;65.11;99890.19;4946286;28;20030;-93
2022/05/05 05:34:05;;;;;;;17.88;11.38;;;;;;;11.79;64.00;99897.31;4944919;28;20050;-90
2022/05/05 05:36:33;;;;;;;20.83;11.98;;;;;;;11.85;63.93;99886.28;4967363;28;20078;-90
2022/05/05 05:38:59;;;;;;;18.38;11.32;;;;;;;12.13;63.27;99905.81;4965828;28;20045;-92
2022/05/05 05:41:25;;;;;;;17.17;10.18;;;;;;;12.20;62.79;99895.59;4980294;28;20034;-89
2022/05/05 05:43:51;;;;;;;14.73;10.02;;;;;;;12.37;62.66;99908.03;4981321;28;20050;-92
2022/05/05 05:46:16;;;;;;;14.90;9.95;;;;;;;12.42;61.91;99899.97;4982619;28;20052;-91
2022/05/05 05:48:42;;;;;;;15.57;9.60;;;;;;;12.46;61.97;99884.84;4961741;28;20030;-90
2022/05/05 05:51:07;;;;;;;20.90;10.20;;;;;;;12.69;61.67;99900.53;4988801;28;20057;-90
2022/05/05 05:53:33;;;;;;;20.95;11.05;;;;;;;12.65;61.45;99887.81;4964477;28;20042;-88
2022/05/05 05:55:59;;;;;;;22.40;11.90;;;;;;;12.80;61.47;99908.63;4982883;28;20085;-91
2022/05/05 05:58:24;;;;;;;18.25;10.45;;;;;;;12.94;61.32;99907.00;4946759;28;20121;-88
2022/05/05 06:00:53;;;;;;;28.27;14.75;;;;;;;12.98;61.03;99900.00;4977916;28;20071;-91
2022/05/05 06:06:04;;;;;;;107.35;45.47;;;;;;;13.22;60.16;99896.72;4960369;28;20102;-89
2022/05/05 06:08:30;;;;;;;18.88;13.45;;;;;;;13.36;59.94;99907.81;4961958;28;20425;-92
2022/05/05 06:10:56;;;;;;;15.65;11.18;;;;;;;13.37;60.08;99887.81;4946179;28;20144;-91
2022/05/05 06:13:21;;;;;;;19.67;11.80;;;;;;;13.48;59.70;99895.59;4948068;28;20039;-90
2022/05/05 06:15:47;;;;;;;17.00;11.50;;;;;;;13.71;59.52;99902.28;4944757;28;20107;-90
2022/05/05 06:18:16;;;;;;;55.67;17.98;;;;;;;13.69;59.23;99884.72;4946861;28;20110;-91
2022/05/05 06:20:42;;;;;;;53.30;16.10;;;;;;;13.79;58.70;99902.81;4960251;28;20035;-89
2022/05/05 06:23:07;;;;;;;34.60;14.20;;;;;;;13.89;59.35;99898.19;4960183;28;20045;-88
2022/05/05 06:25:33;;;;;;;26.10;11.95;;;;;;;14.12;58.73;99910.25;4959463;28;20078;-87
2022/05/05 06:28:00;;;;;;;16.75;9.88;;;;;;;14.27;58.02;99909.34;4972898;28;20034;-94
2022/05/05 06:30:27;;;;;;;31.95;10.27;;;;;;;14.29;58.02;99899.03;4958330;28;20424;-91
2022/05/05 06:32:56;;;;;;;34.97;16.90;;;;;;;14.35;57.87;99884.38;4939895;29;20070;-94
2022/05/05 06:35:21;;;;;;;29.35;15.75;;;;;;;14.60;57.89;99917.84;4959382;28;20038;-91
2022/05/05 06:37:50;;;;;;;25.48;10.98;;;;;;;14.83;57.32;99920.94;4967089;28;20441;-94
2022/05/05 06:40:16;;;;;;;20.13;10.93;;;;;;;14.95;56.46;99911.34;4951788;29;20027;-93
2022/05/05 06:42:44;;;;;;;20.48;10.88;;;;;;;15.11;55.95;99913.94;4926939;29;20031;-87
2022/05/05 06:45:10;;;;;;;22.05;11.13;;;;;;;15.21;55.87;99918.44;4909937;29;20038;-87
2022/05/05 06:47:35;;;;;;;33.20;15.85;;;;;;;15.12;56.23;99891.94;4971372;28;20401;-90
2022/05/05 06:50:01;;;;;;;27.45;12.55;;;;;;;15.30;56.13;99919.47;4944586;28;20053;-91
2022/05/05 06:52:27;;;;;;;24.13;11.13;;;;;;;15.54;55.01;99912.16;4936663;29;20042;-90
2022/05/05 06:54:52;;;;;;;16.27;10.65;;;;;;;15.59;54.67;99905.84;4926447;29;20430;-90
2022/05/05 06:57:18;;;;;;;19.73;10.27;;;;;;;15.71;54.66;99925.25;4926454;29;20035;-91
2022/05/05 06:59:43;;;;;;;19.83;10.80;;;;;;;15.55;54.89;99891.25;4927843;29;20078;-91
2022/05/05 07:02:10;;;;;;;24.48;10.82;;;;;;;15.82;54.44;99911.59;4937006;28;20034;-91
2022/05/05 07:07:30;;;;;;;20.58;9.60;;;;;;;16.10;53.43;99907.16;4954085;28;20053;-90
2022/05/05 07:12:40;;;;;;;20.35;10.45;;;;;;;16.06;53.61;99901.53;4979142;28;20033;-88
2022/05/05 07:15:07;;;;;;;16.65;9.60;;;;;;;16.21;53.59;99914.09;4976529;28;20481;-91
2022/05/05 07:17:33;;;;;;;19.05;9.68;;;;;;;16.53;53.19;99923.41;4943334;28;20058;-89
2022/05/05 07:19:58;;;;;;;16.15;9.02;;;;;;;16.67;52.08;99918.06;4952721;28;20416;-87
2022/05/05 07:22:32;;;;;;;20.95;9.60;;;;;;;16.60;52.87;99915.72;4948113;28;20023;-93
2022/05/05 07:25:00;;;;;;;15.55;12.20;;;;;;;16.64;52.44;99905.03;4965501;28;20019;-92
2022/05/05 07:27:26;;;;;;;25.30;10.77;;;;;;;16.52;52.33;99903.59;4941682;28;20478;-92
2022/05/05 07:29:52;;;;;;;12.38;9.13;;;;;;;16.80;51.87;99911.06;4951355;28;20030;-91
2022/05/05 07:32:17;;;;;;;16.48;10.48;;;;;;;16.95;51.66;99906.22;4949628;29;20027;-88
2022/05/05 07:34:43;;;;;;;17.75;8.80;;;;;;;17.00;51.11;99908.03;4955917;28;20026;-87
2022/05/05 07:37:08;;;;;;;13.15;7.60;;;;;;;17.28;50.62;99911.59;4975309;28;20481;-87
2022/05/05 07:39:35;;;;;;;12.32;7.97;;;;;;;17.52;50.30;99921.53;4961208;28;20026;-88
2022/05/05 07:42:00;;;;;;;14.10;8.65;;;;;;;17.67;49.82;99925.88;4963706;28;20031;-91
2022/05/05 07:44:29;;;;;;;8.55;6.25;;;;;;;17.88;48.48;99932.56;4958670;29;20033;-91
2022/05/05 07:47:00;;;;;;;11.80;7.28;;;;;;;17.94;47.29;99927.81;4965116;28;20097;-93
2022/05/05 07:49:31;;;;;;;13.10;7.23;;;;;;;17.91;47.49;99920.25;4961388;28;20031;-93
2022/05/05 07:52:00;;;;;;;15.13;9.50;;;;;;;18.03;48.47;99928.72;4967903;28;20058;-95
2022/05/05 07:54:35;;;;;;;17.35;11.27;;;;;;;18.05;46.17;99923.75;4967071;28;20030;-94
2022/05/05 07:57:03;;;;;;;14.13;5.78;;;;;;;18.18;44.29;99922.16;4969384;28;20027;-94
2022/05/05 07:59:31;;;;;;;6.28;4.10;;;;;;;18.18;43.18;99933.06;4970398;28;20552;-89
2022/05/05 08:02:00;;;;;;;8.25;4.63;;;;;;;18.20;44.31;99913.66;4949562;28;20042;-94
2022/05/05 08:04:26;;;;;;;9.80;4.70;;;;;;;18.21;44.29;99904.38;4964633;28;20062;-94
2022/05/05 08:06:57;;;;;;;9.05;6.75;;;;;;;18.25;43.91;99908.09;4966333;28;20031;-91
2022/05/05 08:09:22;;;;;;;9.03;5.93;;;;;;;18.38;44.61;99913.50;4968735;28;20030;-93
2022/05/05 08:11:48;;;;;;;11.48;5.00;;;;;;;18.62;44.68;99911.63;4964702;28;20047;-93
2022/05/05 08:14:14;;;;;;;10.18;5.60;;;;;;;18.77;44.41;99905.78;4981387;28;20069;-92
2022/05/05 08:16:41;;;;;;;8.98;4.40;;;;;;;19.01;42.97;99931.97;4948290;29;20043;-92
2022/05/05 08:19:09;;;;;;;11.27;3.80;;;;;;;19.07;40.61;99934.28;4970423;29;20110;-92
2022/05/05 08:21:39;;;;;;;5.85;3.85;;;;;;;18.83;40.06;99906.50;4970664;28;20035;-91
2022/05/05 08:29:33;;;;;;;8.25;4.55;;;;;;;19.07;40.38;99923.38;4977116;28;20553;-94
2022/05/05 08:32:08;;;;;;;5.82;3.28;;;;;;;19.09;37.34;99932.06;4974858;28;20030;-94
2022/05/05 08:34:35;;;;;;;5.88;2.75;;;;;;;19.33;36.45;99948.09;4989107;28;20022;-92
2022/05/05 08:37:01;;;;;;;7.30;3.00;;;;;;;19.28;36.98;99925.56;4971539;28;20448;-93
2022/05/05 08:39:32;;;;;;;7.38;3.90;;;;;;;19.43;37.09;99935.28;4945583;29;20046;-90
2022/05/05 08:41:57;;;;;;;12.05;4.00;;;;;;;19.41;37.15;99940.25;4950669;28;20027;-92
2022/05/05 08:44:23;;;;;;;11.93;3.63;;;;;;;19.43;36.56;99930.63;4954636;28;20027;-92
2022/05/05 08:46:53;;;;;;;6.10;3.67;;;;;;;19.67;35.85;99943.09;4969840;28;20469;-94
2022/05/05 08:49:37;;;;;;;4.75;3.47;;;;;;;19.77;35.83;99945.59;4947399;29;20038;-95
2022/05/05 08:52:03;;;;;;;10.05;2.90;;;;;;;19.79;35.84;99940.59;4956902;29;20035;-87
2022/05/05 08:54:32;;;;;;;7.03;3.63;;;;;;;19.93;36.21;99949.50;4908092;29;20036;-94
2022/05/05 08:56:58;;;;;;;9.43;3.83;;;;;;;19.72;36.47;99949.28;4927236;29;20023;-94
2022/05/05 08:59:25;;;;;;;11.57;4.30;;;;;;;19.91;36.99;99951.75;4945780;29;20039;-95
2022/05/05 09:01:51;;;;;;;7.85;4.10;;;;;;;19.82;36.43;99945.47;4931168;29;20028;-95
2022/05/05 09:04:18;;;;;;;10.05;4.15;;;;;;;19.82;36.76;99926.31;4932307;29;20108;-92
2022/05/05 09:06:50;;;;;;;8.80;4.28;;;;;;;20.04;35.90;99922.66;4929411;29;20042;-94
2022/05/05 09:09:44;;;;;;;4.75;3.08;;;;;;;20.15;36.13;99931.38;4930261;29;20111;-92
2022/05/05 09:12:20;;;;;;;8.93;3.70;;;;;;;20.10;36.36;99946.00;4904358;29;20070;-95
2022/05/05 09:14:50;;;;;;;9.23;3.92;;;;;;;19.72;37.29;99926.63;4928003;29;20040;-96
2022/05/05 09:17:29;;;;;;;4.85;3.65;;;;;;;19.99;36.81;99959.16;4909401;29;20448;-96
2022/05/05 09:19:57;;;;;;;7.05;4.30;;;;;;;19.87;37.40;99947.22;4929571;28;20072;-91
2022/05/05 09:22:24;;;;;;;5.53;3.10;;;;;;;19.90;36.01;99939.22;4974317;28;20042;-92
2022/05/05 09:24:51;;;;;;;5.97;3.92;;;;;;;19.77;37.20;99951.84;4954942;28;20015;-95
2022/05/05 09:27:21;;;;;;;8.15;4.53;;;;;;;19.94;38.20;99962.06;4943905;28;20167;-95
2022/05/05 09:30:05;;;;;;;7.22;3.83;;;;;;;20.05;37.16;99961.78;4976392;28;20065;-96
2022/05/05 09:32:34;;;;;;;18.65;13.57;;;;;;;19.88;36.36;99919.59;4993756;28;20034;-94
2022/05/05 09:40:33;;;;;;;5.43;3.00;;;;;;;19.95;34.83;99928.13;5321777;23;20423;-95
2022/05/05 09:43:01;;;;;;;8.60;7.07;;;;;;;20.02;35.67;99927.66;4979701;28;20067;-94
2022/05/05 09:45:34;;;;;;;9.73;4.88;;;;;;;20.07;36.20;99937.66;4981675;28;20034;-95
2022/05/05 09:48:01;;;;;;;7.97;3.33;;;;;;;20.16;35.65;99933.78;5009768;28;20418;-94
2022/05/05 09:50:33;;;;;;;14.68;9.15;;;;;;;20.20;34.75;99944.91;5010591;28;20085;-93
2022/05/05 09:58:48;;;;;;;4.97;3.53;;;;;;;20.54;33.88;99922.28;5007844;28;20094;-91
2022/05/05 10:01:21;;;;;;;4.60;3.20;;;;;;;20.76;33.65;99920.50;5004569;28;20030;-89
2022/05/05 10:04:00;;;;;;;5.32;3.17;;;;;;;21.01;33.29;99932.56;5019337;28;20515;-92
2022/05/05 10:07:01;;;;;;;7.40;3.13;;;;;;;20.97;33.53;99928.88;4988833;28;20066;-95
2022/05/05 10:09:27;;;;;;;9.10;2.90;;;;;;;21.24;32.95;99935.09;5049935;23;20057;-93
2022/05/05 10:52:49;;;;;;;5.55;4.28;;;;;;;21.48;34.28;99934.56;5020818;28;20058;-90
2022/05/05 10:55:28;;;;;;;5.20;2.60;;;;;;;21.40;34.49;99934.25;4994861;28;20481;-90
2022/05/05 10:57:53;;;;;;;3.20;2.53;;;;;;;21.27;34.82;99935.25;4986957;28;20035;-93
2022/05/05 11:00:23;;;;;;;5.13;2.67;;;;;;;21.38;34.84;99933.75;4972972;28;20057;-95
2022/05/05 11:03:09;;;;;;;6.03;3.20;;;;;;;21.67;34.94;99939.66;4989489;28;20030;-96
2022/05/05 11:05:38;;;;;;;7.00;2.53;;;;;;;21.58;33.79;99915.00;4988552;28;20026;-94
2022/05/05 11:08:12;;;;;;;4.95;2.78;;;;;;;21.64;34.86;99935.63;4979504;28;20030;-91
2022/05/05 11:13:56;;;;;;;4.43;3.25;;;;;;;21.50;34.28;99910.38;5003558;28;20049;-95
2022/05/05 11:22:15;;;;;;;6.90;3.00;;;;;;;21.28;34.60;99925.88;5005153;28;20145;-92
2022/05/05 11:24:46;;;;;;;11.27;4.18;;;;;;;21.62;35.10;99913.22;4970132;28;20022;-95
2022/05/05 11:27:58;;;;;;;5.10;3.45;;;;;;;21.82;35.05;99933.63;4986673;28;20030;-93
2022/05/05 11:30:24;;;;;;;10.45;3.55;;;;;;;21.76;36.02;99913.00;4968410;28;20039;-94
2022/05/05 11:32:49;;;;;;;5.53;3.03;;;;;;;21.75;36.56;99936.09;4957509;28;20110;-92
2022/05/05 11:35:24;;;;;;;4.80;3.17;;;;;;;21.62;37.20;99920.66;4949128;28;20106;-92
2022/05/05 11:37:55;;;;;;;5.00;3.60;;;;;;;21.66;37.68;99913.38;4936516;28;20035;-89
2022/05/05 11:40:23;;;;;;;11.15;5.93;;;;;;;21.75;37.19;99908.66;4950389;28;20039;-92
2022/05/05 11:45:35;;;;;;;8.82;5.60;;;;;;;21.89;36.78;99917.44;4966500;28;20073;-91
2022/05/05 11:48:19;;;;;;;6.63;3.13;;;;;;;21.65;37.14;99898.06;4947099;29;20034;-90
2022/05/05 11:50:44;;;;;;;4.22;2.92;;;;;;;21.85;37.14;99905.56;4956453;28;20058;-88
2022/05/05 11:53:17;;;;;;;10.55;5.05;;;;;;;21.85;36.91;99896.50;4948941;28;20053;-88
2022/05/05 11:55:48;;;;;;;10.60;3.78;;;;;;;21.62;36.74;99895.97;4962344;28;20055;-88
2022/05/05 12:04:00;;;;;;;4.32;3.28;;;;;;;21.69;36.77;99901.75;4985613;28;20040;-90
2022/05/05 12:06:36;;;;;;;7.68;3.30;;;;;;;21.65;36.86;99896.13;4985985;28;20022;-88
2022/05/05 12:09:02;;;;;;;6.90;3.40;;;;;;;21.63;36.91;99890.19;4987330;28;20059;-90
2022/05/05 12:11:28;;;;;;;7.10;3.47;;;;;;;21.53;37.06;99887.81;4982481;28;20030;-90
2022/05/05 12:14:09;;;;;;;4.68;3.45;;;;;;;21.24;37.66;99911.25;4990730;28;20030;-90
2022/05/05 12:16:35;;;;;;;4.32;3.13;;;;;;;21.35;37.17;99904.28;4991919;28;20011;-92
2022/05/05 12:19:11;;;;;;;9.05;3.58;;;;;;;21.31;37.69;99908.81;4959833;28;20061;-88
2022/05/05 12:21:38;;;;;;;7.43;3.33;;;;;;;21.32;37.02;99907.66;4971341;28;20054;-87
2022/05/05 12:24:03;;;;;;;5.97;3.22;;;;;;;21.37;36.94;99907.50;5000084;28;20088;-89
2022/05/05 12:26:33;;;;;;;4.18;3.05;;;;;;;21.20;37.89;99921.25;4966263;28;20030;-89
2022/05/05 12:29:38;;;;;;;5.68;3.05;;;;;;;20.96;37.03;99908.91;5001332;28;20029;-91
2022/05/05 12:32:24;;;;;;;8.02;3.80;;;;;;;21.15;37.64;99924.16;4965520;28;20033;-90
2022/05/05 12:35:08;;;;;;;5.60;3.47;;;;;;;21.15;37.73;99916.75;4983546;28;20046;-89
2022/05/05 12:37:34;;;;;;;5.95;3.38;;;;;;;21.29;37.75;99915.72;4983012;28;20038;-88
2022/05/05 12:40:04;;;;;;;12.52;4.25;;;;;;;21.16;37.27;99901.91;4964533;28;20069;-89
2022/05/05 12:42:46;;;;;;;8.70;3.53;;;;;;;21.52;36.56;99913.59;4936362;28;20034;-88
2022/05/05 12:45:29;;;;;;;80.85;11.93;;;;;;;21.57;36.56;99895.03;4975679;28;20547;-91
2022/05/05 12:47:55;;;;;;;5.75;3.70;;;;;;;21.82;35.00;99911.69;4968190;28;20049;-91
2022/05/05 12:50:33;;;;;;;7.25;3.50;;;;;;;22.00;34.62;99896.75;4965096;28;20050;-91
2022/05/05 13:01:58;;;;;;;7.78;2.75;;;;;;;22.00;33.74;99879.50;4986822;28;20060;-86
2022/05/05 13:04:23;;;;;;;8.63;2.95;;;;;;;22.03;33.85;99875.28;4989750;28;20484;-90
2022/05/05 13:06:51;;;;;;;9.40;7.03;;;;;;;22.16;33.53;99871.47;4993440;28;20101;-90
2022/05/05 13:09:16;;;;;;;4.28;2.97;;;;;;;22.18;33.59;99886.47;5004719;28;20038;-89
2022/05/05 13:11:52;;;;;;;4.13;2.90;;;;;;;22.18;32.62;99880.97;4988456;28;20026;-88
2022/05/05 13:14:18;;;;;;;3.13;2.67;;;;;;;22.27;32.16;99875.47;4995421;28;20492;-89
2022/05/05 13:16:44;;;;;;;6.55;3.30;;;;;;;22.42;32.22;99879.53;5000173;28;20080;-89